createdAt,value
2017-06-12T00:00:33.177Z,1007.06
2017-06-12T00:01:43.441Z,1006.99
2017-06-12T00:02:53.707Z,1006.91
2017-06-12T00:04:03.651Z,1006.87
2017-06-12T00:05:13.287Z,1006.82
2017-06-12T00:06:22.606Z,1006.74
2017-06-12T00:07:31.925Z,1006.73
2017-06-12T00:08:42.198Z,1006.67
2017-06-12T00:09:52.612Z,1006.75
2017-06-12T00:11:02.874Z,1006.78
2017-06-12T00:12:13.143Z,1006.73
2017-06-12T00:13:23.414Z,1006.74
2017-06-12T00:14:33.677Z,1006.74
2017-06-12T00:15:43.934Z,1006.76
2017-06-12T00:16:54.197Z,1006.77
2017-06-12T00:18:04.147Z,1006.78
2017-06-12T00:19:14.420Z,1006.77
2017-06-12T00:20:24.054Z,1006.78
2017-06-12T00:21:34.321Z,1006.77
2017-06-12T00:22:44.582Z,1006.76
2017-06-12T00:23:54.847Z,1006.76
2017-06-12T00:25:05.114Z,1006.76
2017-06-12T00:26:15.385Z,1006.75
2017-06-12T00:27:25.331Z,1006.74
2017-06-12T00:28:34.649Z,1006.72
2017-06-12T00:29:44.909Z,1006.75
2017-06-12T00:30:55.171Z,1006.73
2017-06-12T00:32:05.429Z,1006.73
2017-06-12T00:33:15.539Z,1006.71
2017-06-12T00:34:25.493Z,1006.71
2017-06-12T00:35:35.438Z,1006.76
2017-06-12T00:36:45.384Z,1006.75
2017-06-12T00:37:55.645Z,1006.73
2017-06-12T00:39:05.603Z,1006.61
2017-06-12T00:40:15.866Z,1006.56
2017-06-12T00:41:25.824Z,1006.62
2017-06-12T00:42:36.095Z,1006.61
2017-06-12T00:43:45.415Z,1006.64
2017-06-12T00:44:55.514Z,1006.64
2017-06-12T00:46:05.778Z,1006.63
2017-06-12T00:47:15.729Z,1006.56
2017-06-12T00:48:25.675Z,1006.57
2017-06-12T00:49:35.966Z,1006.58
2017-06-12T00:50:46.228Z,1006.57
2017-06-12T00:51:56.491Z,1006.59
2017-06-12T00:53:06.437Z,1006.56
2017-06-12T00:54:16.704Z,1006.54
2017-06-12T00:55:26.653Z,1006.5
2017-06-12T00:56:36.597Z,1006.46
2017-06-12T00:57:46.862Z,1006.49
2017-06-12T00:58:56.810Z,1006.41
2017-06-12T01:00:06.463Z,1006.4
2017-06-12T01:01:16.413Z,1006.41
2017-06-12T01:02:26.858Z,1006.39
2017-06-12T01:03:36.808Z,1006.35
2017-06-12T01:04:46.767Z,1006.31
2017-06-12T01:05:57.029Z,1006.28
2017-06-12T01:07:07.294Z,1006.23
2017-06-12T01:08:17.253Z,1006.17
2017-06-12T01:09:26.891Z,1006.15
2017-06-12T01:10:36.523Z,1006.13
2017-06-12T01:11:46.812Z,1006.06
2017-06-12T01:12:57.078Z,1006.05
2017-06-12T01:14:07.034Z,1005.96
2017-06-12T01:15:17.299Z,1005.95
2017-06-12T01:16:27.559Z,1005.91
2017-06-12T01:17:37.824Z,1005.94
2017-06-12T01:18:47.940Z,1005.93
2017-06-12T01:19:57.894Z,1005.94
2017-06-12T01:21:07.542Z,1005.94
2017-06-12T01:22:17.493Z,1005.96
2017-06-12T01:23:27.441Z,1005.96
2017-06-12T01:24:37.396Z,1005.95
2017-06-12T01:25:47.349Z,1005.96
2017-06-12T01:26:56.986Z,1005.98
2017-06-12T01:28:07.253Z,1006
2017-06-12T01:29:17.515Z,1006
2017-06-12T01:30:27.783Z,1006.01
2017-06-12T01:31:37.737Z,1005.97
2017-06-12T01:32:48.031Z,1005.94
2017-06-12T01:33:57.974Z,1005.95
2017-06-12T01:35:07.606Z,1005.93
2017-06-12T01:36:17.390Z,1005.9
2017-06-12T01:37:27.647Z,1005.95
2017-06-12T01:38:37.602Z,1005.92
2017-06-12T01:39:47.859Z,1005.93
2017-06-12T01:40:57.829Z,1005.92
2017-06-12T01:42:07.775Z,1005.96
2017-06-12T01:43:18.046Z,1005.97
2017-06-12T01:44:28.310Z,1006.02
2017-06-12T01:45:38.574Z,1006.03
2017-06-12T01:46:48.848Z,1006
2017-06-12T01:47:58.948Z,1005.98
2017-06-12T01:49:08.896Z,1005.95
2017-06-12T01:50:18.851Z,1005.95
2017-06-12T01:51:28.795Z,1005.96
2017-06-12T01:52:38.757Z,1005.92
2017-06-12T01:53:49.010Z,1005.88
2017-06-12T01:54:58.956Z,1005.8
2017-06-12T01:56:08.582Z,1005.81
2017-06-12T01:57:18.534Z,1005.82
2017-06-12T01:58:28.487Z,1005.79
2017-06-12T01:59:38.751Z,1005.83
2017-06-12T02:00:49.010Z,1005.87
2017-06-12T02:01:58.962Z,1005.83
2017-06-12T02:03:08.916Z,1005.67
2017-06-12T02:04:19.180Z,1005.61
2017-06-12T02:05:29.283Z,1005.59
2017-06-12T02:06:39.231Z,1005.61
2017-06-12T02:07:48.867Z,1005.62
2017-06-12T02:08:59.127Z,1005.6
2017-06-12T02:10:09.390Z,1005.54
2017-06-12T02:11:19.655Z,1005.57
2017-06-12T02:12:29.605Z,1005.5
2017-06-12T02:13:39.236Z,1005.53
2017-06-12T02:14:49.498Z,1005.53
2017-06-12T02:15:59.450Z,1005.48
2017-06-12T02:17:09.400Z,1005.47
2017-06-12T02:18:19.664Z,1005.52
2017-06-12T02:19:29.302Z,1005.49
2017-06-12T02:20:39.562Z,1005.5
2017-06-12T02:21:49.827Z,1005.52
2017-06-12T02:22:59.928Z,1005.56
2017-06-12T02:24:10.194Z,1005.51
2017-06-12T02:25:20.140Z,1005.49
2017-06-12T02:26:30.401Z,1005.48
2017-06-12T02:27:40.666Z,1005.47
2017-06-12T02:28:50.303Z,1005.56
2017-06-12T02:30:00.249Z,1005.57
2017-06-12T02:31:10.505Z,1005.56
2017-06-12T02:32:20.780Z,1005.6
2017-06-12T02:33:31.041Z,1005.57
2017-06-12T02:34:41.328Z,1005.53
2017-06-12T02:35:51.608Z,1005.55
2017-06-12T02:37:01.556Z,1005.53
2017-06-12T02:38:11.829Z,1005.54
2017-06-12T02:39:22.105Z,1005.49
2017-06-12T02:40:32.202Z,1005.53
2017-06-12T02:41:42.467Z,1005.52
2017-06-12T02:42:52.735Z,1005.49
2017-06-12T02:44:03.019Z,1005.51
2017-06-12T02:45:12.982Z,1005.53
2017-06-12T02:46:22.936Z,1005.52
2017-06-12T02:47:32.883Z,1005.51
2017-06-12T02:48:42.517Z,1005.47
2017-06-12T02:49:52.467Z,1005.48
2017-06-12T02:51:02.098Z,1005.46
2017-06-12T02:52:12.365Z,1005.5
2017-06-12T02:53:22.310Z,1005.51
2017-06-12T02:54:32.577Z,1005.52
2017-06-12T02:55:41.902Z,1005.5
2017-06-12T02:56:52.166Z,1005.51
2017-06-12T02:58:02.430Z,1005.52
2017-06-12T02:59:12.691Z,1005.49
2017-06-12T03:00:22.640Z,1005.48
2017-06-12T03:01:32.585Z,1005.47
2017-06-12T03:02:42.219Z,1005.46
2017-06-12T03:03:52.009Z,1005.42
2017-06-12T03:05:01.960Z,1005.44
2017-06-12T03:06:12.242Z,1005.45
2017-06-12T03:07:22.189Z,1005.49
2017-06-12T03:08:32.451Z,1005.45
2017-06-12T03:09:42.394Z,1005.43
2017-06-12T03:10:52.657Z,1005.42
2017-06-12T03:12:02.607Z,1005.43
2017-06-12T03:13:12.868Z,1005.48
2017-06-12T03:14:22.820Z,1005.46
2017-06-12T03:15:32.770Z,1005.44
2017-06-12T03:16:43.037Z,1005.4
2017-06-12T03:17:53.292Z,1005.37
2017-06-12T03:19:03.242Z,1005.37
2017-06-12T03:20:12.877Z,1005.38
2017-06-12T03:21:22.983Z,1005.42
2017-06-12T03:22:33.249Z,1005.39
2017-06-12T03:23:43.204Z,1005.4
2017-06-12T03:24:53.471Z,1005.38
2017-06-12T03:26:03.424Z,1005.37
2017-06-12T03:27:13.377Z,1005.36
2017-06-12T03:28:23.328Z,1005.36
2017-06-12T03:29:33.308Z,1005.31
2017-06-12T03:30:43.256Z,1005.29
2017-06-12T03:31:53.208Z,1005.33
2017-06-12T03:33:03.159Z,1005.28
2017-06-12T03:34:13.114Z,1005.26
2017-06-12T03:35:23.375Z,1005.25
2017-06-12T03:36:33.645Z,1005.25
2017-06-12T03:37:43.618Z,1005.25
2017-06-12T03:38:53.567Z,1005.2
2017-06-12T03:40:02.260Z,1005.25
2017-06-12T03:41:12.524Z,1005.32
2017-06-12T03:42:22.474Z,1005.31
2017-06-12T03:43:32.422Z,1005.3
2017-06-12T03:44:42.836Z,1005.31
2017-06-12T03:45:52.786Z,1005.32
2017-06-12T03:47:03.043Z,1005.32
2017-06-12T03:48:13.305Z,1005.26
2017-06-12T03:49:23.254Z,1005.25
2017-06-12T03:50:33.206Z,1005.28
2017-06-12T03:51:43.152Z,1005.29
2017-06-12T03:52:53.419Z,1005.25
2017-06-12T03:54:03.370Z,1005.32
2017-06-12T03:55:13.315Z,1005.31
2017-06-12T03:56:23.728Z,1005.27
2017-06-12T03:57:33.988Z,1005.27
2017-06-12T03:58:44.246Z,1005.23
2017-06-12T03:59:54.197Z,1005.17
2017-06-12T04:01:03.834Z,1005.13
2017-06-12T04:02:13.779Z,1005.13
2017-06-12T04:03:23.412Z,1005.11
2017-06-12T04:04:33.679Z,1005.12
2017-06-12T04:05:44.177Z,1005.09
2017-06-12T04:06:54.465Z,1005.03
2017-06-12T04:08:03.935Z,1005.03
2017-06-12T04:09:13.886Z,1005.01
2017-06-12T04:10:23.846Z,1004.99
2017-06-12T04:11:34.109Z,1005.05
2017-06-12T04:12:44.057Z,1005.04
2017-06-12T04:13:54.323Z,1005.04
2017-06-12T04:15:04.270Z,1005.03
2017-06-12T04:16:13.906Z,1005.06
2017-06-12T04:17:23.857Z,1005.04
2017-06-12T04:18:34.127Z,1005.01
2017-06-12T04:19:44.230Z,1004.97
2017-06-12T04:20:54.492Z,1004.96
2017-06-12T04:22:04.444Z,1004.95
2017-06-12T04:23:14.712Z,1004.95
2017-06-12T04:24:24.975Z,1004.97
2017-06-12T04:25:34.609Z,1004.94
2017-06-12T04:26:44.247Z,1004.96
2017-06-12T04:27:54.514Z,1004.99
2017-06-12T04:29:04.780Z,1005.06
2017-06-12T04:30:15.053Z,1005.12
2017-06-12T04:31:24.691Z,1005.2
2017-06-12T04:32:34.638Z,1005.23
2017-06-12T04:33:44.900Z,1005.21
2017-06-12T04:34:55.162Z,1005.19
2017-06-12T04:36:05.431Z,1005.16
2017-06-12T04:37:15.220Z,1005.14
2017-06-12T04:38:24.860Z,1005.18
2017-06-12T04:39:35.126Z,1005.29
2017-06-12T04:40:44.768Z,1005.34
2017-06-12T04:41:55.026Z,1005.39
2017-06-12T04:43:04.658Z,1005.42
2017-06-12T04:44:14.612Z,1005.4
2017-06-12T04:45:24.559Z,1005.39
2017-06-12T04:46:34.821Z,1005.38
2017-06-12T04:47:45.088Z,1005.29
2017-06-12T04:48:55.183Z,1005.32
2017-06-12T04:50:05.447Z,1005.28
2017-06-12T04:51:15.089Z,1005.2
2017-06-12T04:52:25.037Z,1005.24
2017-06-12T04:53:35.297Z,1005.31
2017-06-12T04:54:44.615Z,1005.39
2017-06-12T04:55:54.571Z,1005.37
2017-06-12T04:57:04.838Z,1005.31
2017-06-12T04:58:15.104Z,1005.28
2017-06-12T04:59:24.737Z,1005.36
2017-06-12T05:00:35.002Z,1005.37
2017-06-12T05:01:44.956Z,1005.36
2017-06-12T05:02:54.596Z,1005.4
2017-06-12T05:04:04.858Z,1005.46
2017-06-12T05:05:15.118Z,1005.59
2017-06-12T05:06:24.604Z,1005.57
2017-06-12T05:07:34.575Z,1005.6
2017-06-12T05:08:44.522Z,1005.62
2017-06-12T05:09:54.470Z,1005.65
2017-06-12T05:11:04.107Z,1005.66
2017-06-12T05:12:14.389Z,1005.66
2017-06-12T05:13:24.654Z,1005.64
2017-06-12T05:14:34.610Z,1005.58
2017-06-12T05:15:44.870Z,1005.54
2017-06-12T05:16:54.816Z,1005.49
2017-06-12T05:18:05.090Z,1005.52
2017-06-12T05:19:15.032Z,1005.59
2017-06-12T05:20:25.290Z,1005.54
2017-06-12T05:21:35.265Z,1005.54
2017-06-12T05:22:45.212Z,1005.56
2017-06-12T05:23:54.994Z,1005.53
2017-06-12T05:25:04.942Z,1005.53
2017-06-12T05:26:14.576Z,1005.53
2017-06-12T05:27:24.523Z,1005.44
2017-06-12T05:28:34.786Z,1005.45
2017-06-12T05:29:44.422Z,1005.47
2017-06-12T05:30:53.735Z,1005.51
2017-06-12T05:32:03.686Z,1005.58
2017-06-12T05:33:13.954Z,1005.54
2017-06-12T05:34:23.618Z,1005.58
2017-06-12T05:35:34.036Z,1005.57
2017-06-12T05:36:44.306Z,1005.49
2017-06-12T05:37:54.249Z,1005.53
2017-06-12T05:39:03.571Z,1005.57
2017-06-12T05:40:13.517Z,1005.6
2017-06-12T05:41:23.158Z,1005.56
2017-06-12T05:42:33.110Z,1005.62
2017-06-12T05:43:43.050Z,1005.6
2017-06-12T05:44:52.684Z,1005.66
2017-06-12T05:46:02.319Z,1005.69
2017-06-12T05:47:12.739Z,1005.71
2017-06-12T05:48:22.996Z,1005.63
2017-06-12T05:49:32.630Z,1005.66
2017-06-12T05:50:42.264Z,1005.66
2017-06-12T05:51:52.217Z,1005.74
2017-06-12T05:53:01.852Z,1005.69
2017-06-12T05:54:12.124Z,1005.65
2017-06-12T05:55:22.388Z,1005.69
2017-06-12T05:56:32.656Z,1005.67
2017-06-12T05:57:42.919Z,1005.75
2017-06-12T05:58:53.016Z,1005.78
2017-06-12T06:00:03.280Z,1005.94
2017-06-12T06:01:13.541Z,1005.8
2017-06-12T06:02:23.504Z,1005.86
2017-06-12T06:03:33.768Z,1005.8
2017-06-12T06:04:43.397Z,1005.81
2017-06-12T06:05:53.348Z,1005.79
2017-06-12T06:07:03.612Z,1005.86
2017-06-12T06:08:13.875Z,1005.86
2017-06-12T06:09:23.823Z,1005.85
2017-06-12T06:10:33.924Z,1005.86
2017-06-12T06:11:44.182Z,1005.85
2017-06-12T06:12:54.137Z,1005.87
2017-06-12T06:14:04.403Z,1005.9
2017-06-12T06:15:14.350Z,1005.96
2017-06-12T06:16:24.299Z,1005.96
2017-06-12T06:17:34.250Z,1005.93
2017-06-12T06:18:44.207Z,1005.99
2017-06-12T06:19:54.159Z,1005.99
2017-06-12T06:21:04.160Z,1006.06
2017-06-12T06:22:14.261Z,1006.06
2017-06-12T06:23:23.897Z,1006.05
2017-06-12T06:24:33.873Z,1006.07
2017-06-12T06:25:43.522Z,1006.05
2017-06-12T06:26:53.780Z,1006.05
2017-06-12T06:28:03.419Z,1005.99
2017-06-12T06:29:13.050Z,1006.01
2017-06-12T06:30:22.999Z,1006.01
2017-06-12T06:31:32.943Z,1006.08
2017-06-12T06:32:42.890Z,1006.08
2017-06-12T06:33:52.205Z,1006.07
2017-06-12T06:35:02.471Z,1006.04
2017-06-12T06:36:12.736Z,1006.13
2017-06-12T06:37:23.000Z,1006.06
2017-06-12T06:38:32.320Z,1006.1
2017-06-12T06:39:42.585Z,1006.03
2017-06-12T06:40:52.544Z,1006.01
2017-06-12T06:42:02.186Z,1006.02
2017-06-12T06:43:12.445Z,1006.12
2017-06-12T06:44:22.396Z,1006.18
2017-06-12T06:45:32.354Z,1006.22
2017-06-12T06:46:42.622Z,1006.25
2017-06-12T06:47:52.575Z,1006.28
2017-06-12T06:49:02.206Z,1006.24
2017-06-12T06:50:12.152Z,1006.31
2017-06-12T06:51:22.564Z,1006.28
2017-06-12T06:52:32.833Z,1006.32
2017-06-12T06:53:43.092Z,1006.27
2017-06-12T06:54:53.045Z,1006.24
2017-06-12T06:56:03.315Z,1006.26
2017-06-12T06:57:13.301Z,1006.28
2017-06-12T06:58:23.269Z,1006.22
2017-06-12T06:59:33.539Z,1006.27
2017-06-12T07:00:43.495Z,1006.23
2017-06-12T07:01:53.762Z,1006.18
2017-06-12T07:03:03.862Z,1006.19
2017-06-12T07:04:13.810Z,1006.28
2017-06-12T07:05:23.774Z,1006.37
2017-06-12T07:06:34.043Z,1006.34
2017-06-12T07:07:43.990Z,1006.32
2017-06-12T07:08:54.251Z,1006.43
2017-06-12T07:10:04.201Z,1006.4
2017-06-12T07:11:14.141Z,1006.37
2017-06-12T07:12:23.775Z,1006.44
2017-06-12T07:13:34.034Z,1006.34
2017-06-12T07:14:43.818Z,1006.37
2017-06-12T07:15:53.760Z,1006.32
2017-06-12T07:17:03.732Z,1006.32
2017-06-12T07:18:13.681Z,1006.29
2017-06-12T07:19:23.316Z,1006.55
2017-06-12T07:20:32.950Z,1006.42
2017-06-12T07:21:43.220Z,1006.3
2017-06-12T07:22:53.487Z,1006.3
2017-06-12T07:24:03.430Z,1006.3
2017-06-12T07:25:13.380Z,1006.26
2017-06-12T07:26:23.648Z,1006.23
2017-06-12T07:27:33.911Z,1006.16
2017-06-12T07:28:44.190Z,1006.18
2017-06-12T07:29:54.141Z,1006.22
2017-06-12T07:31:04.088Z,1006.29
2017-06-12T07:32:14.503Z,1006.19
2017-06-12T07:33:24.765Z,1006.29
2017-06-12T07:34:34.402Z,1006.27
2017-06-12T07:35:44.355Z,1006.31
2017-06-12T07:36:54.300Z,1006.34
2017-06-12T07:38:04.248Z,1006.28
2017-06-12T07:39:14.198Z,1006.28
2017-06-12T07:40:24.462Z,1006.27
2017-06-12T07:41:34.405Z,1006.32
2017-06-12T07:42:44.359Z,1006.34
2017-06-12T07:43:54.784Z,1006.34
2017-06-12T07:45:04.730Z,1006.29
2017-06-12T07:46:14.378Z,1006.33
2017-06-12T07:47:24.016Z,1006.28
2017-06-12T07:48:34.278Z,1006.34
2017-06-12T07:49:44.231Z,1006.37
2017-06-12T07:50:54.499Z,1006.38
2017-06-12T07:52:04.760Z,1006.39
2017-06-12T07:53:14.713Z,1006.34
2017-06-12T07:54:24.659Z,1006.35
2017-06-12T07:55:34.782Z,1006.34
2017-06-12T07:56:45.049Z,1006.3
2017-06-12T07:57:54.996Z,1006.33
2017-06-12T07:59:04.952Z,1006.3
2017-06-12T08:00:15.219Z,1006.35
2017-06-12T08:01:25.173Z,1006.4
2017-06-12T08:02:35.124Z,1006.35
2017-06-12T08:03:45.387Z,1006.41
2017-06-12T08:04:55.646Z,1006.49
2017-06-12T08:06:05.281Z,1006.42
2017-06-12T08:07:15.221Z,1006.4
2017-06-12T08:08:25.481Z,1006.39
2017-06-12T08:09:35.425Z,1006.46
2017-06-12T08:10:45.377Z,1006.48
2017-06-12T08:11:54.998Z,1006.48
2017-06-12T08:13:05.256Z,1006.44
2017-06-12T08:14:15.207Z,1006.44
2017-06-12T08:15:24.844Z,1006.46
2017-06-12T08:16:34.476Z,1006.44
2017-06-12T08:17:44.424Z,1006.5
2017-06-12T08:18:53.744Z,1006.5
2017-06-12T08:20:03.692Z,1006.64
2017-06-12T08:21:13.012Z,1006.63
2017-06-12T08:22:23.272Z,1006.57
2017-06-12T08:23:32.914Z,1006.58
2017-06-12T08:24:42.869Z,1006.51
2017-06-12T08:25:53.134Z,1006.45
2017-06-12T08:27:03.081Z,1006.34
2017-06-12T08:28:12.721Z,1006.36
2017-06-12T08:29:23.131Z,1006.34
2017-06-12T08:30:33.393Z,1006.35
2017-06-12T08:31:43.658Z,1006.38
2017-06-12T08:32:53.607Z,1006.36
2017-06-12T08:34:03.238Z,1006.28
2017-06-12T08:35:13.188Z,1006.31
2017-06-12T08:36:22.820Z,1006.36
2017-06-12T08:37:33.081Z,1006.47
2017-06-12T08:38:42.427Z,1006.38
2017-06-12T08:39:52.695Z,1006.44
2017-06-12T08:41:02.653Z,1006.36
2017-06-12T08:42:12.943Z,1006.39
2017-06-12T08:43:23.208Z,1006.38
2017-06-12T08:44:33.474Z,1006.38
2017-06-12T08:45:43.428Z,1006.4
2017-06-12T08:46:53.523Z,1006.5
2017-06-12T08:48:03.476Z,1006.49
2017-06-12T08:49:13.743Z,1006.48
2017-06-12T08:50:23.690Z,1006.49
2017-06-12T08:51:33.955Z,1006.44
2017-06-12T08:52:43.905Z,1006.5
2017-06-12T08:53:54.177Z,1006.43
2017-06-12T08:55:03.808Z,1006.38
2017-06-12T08:56:14.076Z,1006.4
2017-06-12T08:57:24.337Z,1006.57
2017-06-12T08:58:33.995Z,1006.44
2017-06-12T08:59:44.275Z,1006.43
2017-06-12T09:00:53.597Z,1006.43
2017-06-12T09:02:03.875Z,1006.52
2017-06-12T09:03:13.513Z,1006.61
2017-06-12T09:04:23.304Z,1006.56
2017-06-12T09:05:33.257Z,1006.63
2017-06-12T09:06:43.199Z,1006.59
2017-06-12T09:07:53.142Z,1006.57
2017-06-12T09:09:02.778Z,1006.57
2017-06-12T09:10:12.732Z,1006.59
2017-06-12T09:11:22.993Z,1006.67
2017-06-12T09:12:33.251Z,1006.62
2017-06-12T09:13:43.515Z,1006.66
2017-06-12T09:14:53.777Z,1006.57
2017-06-12T09:16:04.194Z,1006.52
2017-06-12T09:17:14.138Z,1006.65
2017-06-12T09:18:24.415Z,1006.73
2017-06-12T09:19:33.733Z,1006.67
2017-06-12T09:20:43.054Z,1006.71
2017-06-12T09:21:53.001Z,1006.72
2017-06-12T09:23:03.259Z,1006.76
2017-06-12T09:24:13.210Z,1006.71
2017-06-12T09:25:22.835Z,1006.81
2017-06-12T09:26:32.473Z,1006.76
2017-06-12T09:27:42.741Z,1006.72
2017-06-12T09:28:53.038Z,1006.84
2017-06-12T09:30:02.984Z,1006.74
2017-06-12T09:31:12.937Z,1006.76
2017-06-12T09:32:22.573Z,1006.72
2017-06-12T09:33:32.987Z,1006.92
2017-06-12T09:34:42.935Z,1006.94
2017-06-12T09:35:53.198Z,1006.91
2017-06-12T09:37:03.460Z,1006.95
2017-06-12T09:38:13.718Z,1006.97
2017-06-12T09:39:23.657Z,1006.88
2017-06-12T09:40:33.920Z,1006.91
2017-06-12T09:41:43.863Z,1006.89
2017-06-12T09:42:53.181Z,1006.84
2017-06-12T09:44:03.128Z,1006.83
2017-06-12T09:45:12.761Z,1006.92
2017-06-12T09:46:22.714Z,1006.86
2017-06-12T09:47:32.977Z,1006.97
2017-06-12T09:48:43.239Z,1006.92
2017-06-12T09:49:53.500Z,1006.99
2017-06-12T09:51:03.136Z,1007.01
2017-06-12T09:52:12.778Z,1007
2017-06-12T09:53:23.043Z,1007.02
2017-06-12T09:54:33.306Z,1006.97
2017-06-12T09:55:43.597Z,1007.01
2017-06-12T09:56:53.855Z,1007.05
2017-06-12T09:58:04.113Z,1006.97
2017-06-12T09:59:13.126Z,1007.02
2017-06-12T10:00:23.076Z,1007.06
2017-06-12T10:01:32.709Z,1006.94
2017-06-12T10:02:42.812Z,1007.13
2017-06-12T10:03:53.075Z,1007.19
2017-06-12T10:05:03.339Z,1007.09
2017-06-12T10:06:13.285Z,1007.1
2017-06-12T10:07:22.920Z,1007.13
2017-06-12T10:08:33.183Z,1007.09
2017-06-12T10:09:43.126Z,1007.16
2017-06-12T10:10:53.072Z,1007.15
2017-06-12T10:12:02.744Z,1007.2
2017-06-12T10:13:12.696Z,1007.21
2017-06-12T10:14:22.330Z,1007.22
2017-06-12T10:15:31.650Z,1007.22
2017-06-12T10:16:41.919Z,1007.17
2017-06-12T10:17:52.187Z,1007.22
2017-06-12T10:19:02.447Z,1007.24
2017-06-12T10:20:12.713Z,1007.19
2017-06-12T10:21:22.347Z,1007.17
2017-06-12T10:22:32.608Z,1007.21
2017-06-12T10:23:42.557Z,1007.23
2017-06-12T10:24:52.511Z,1007.26
2017-06-12T10:26:02.610Z,1007.1
2017-06-12T10:27:12.869Z,1007.19
2017-06-12T10:28:22.816Z,1007.2
2017-06-12T10:29:32.773Z,1007.19
2017-06-12T10:30:43.039Z,1007.28
2017-06-12T10:31:53.297Z,1007.17
2017-06-12T10:33:02.936Z,1007.2
2017-06-12T10:34:12.573Z,1007.18
2017-06-12T10:35:22.839Z,1007.2
2017-06-12T10:36:33.103Z,1007.19
2017-06-12T10:37:43.361Z,1007.17
2017-06-12T10:38:53.625Z,1007.19
2017-06-12T10:40:03.893Z,1007.19
2017-06-12T10:41:13.522Z,1007.18
2017-06-12T10:42:23.466Z,1007.18
2017-06-12T10:43:33.418Z,1007.14
2017-06-12T10:44:43.372Z,1007.17
2017-06-12T10:45:53.325Z,1007.26
2017-06-12T10:47:03.589Z,1007.31
2017-06-12T10:48:13.534Z,1007.33
2017-06-12T10:49:22.691Z,1007.29
2017-06-12T10:50:32.326Z,1007.42
2017-06-12T10:51:42.270Z,1007.4
2017-06-12T10:52:52.225Z,1007.37
2017-06-12T10:54:02.168Z,1007.37
2017-06-12T10:55:11.489Z,1007.32
2017-06-12T10:56:21.436Z,1007.28
2017-06-12T10:57:31.383Z,1007.4
2017-06-12T10:58:41.338Z,1007.24
2017-06-12T10:59:51.604Z,1007.26
2017-06-12T11:01:01.871Z,1007.32
2017-06-12T11:02:11.513Z,1007.3
2017-06-12T11:03:21.777Z,1007.34
2017-06-12T11:04:32.037Z,1007.49
2017-06-12T11:05:41.991Z,1007.35
2017-06-12T11:06:52.409Z,1007.43
2017-06-12T11:08:02.042Z,1007.36
2017-06-12T11:09:11.673Z,1007.53
2017-06-12T11:10:21.934Z,1007.45
2017-06-12T11:11:31.880Z,1007.43
2017-06-12T11:12:42.140Z,1007.5
2017-06-12T11:13:52.088Z,1007.46
2017-06-12T11:15:01.408Z,1007.58
2017-06-12T11:16:11.047Z,1007.47
2017-06-12T11:17:21.313Z,1007.49
2017-06-12T11:18:31.579Z,1007.57
2017-06-12T11:19:41.216Z,1007.61
2017-06-12T11:20:51.163Z,1007.58
2017-06-12T11:22:01.424Z,1007.55
2017-06-12T11:23:11.686Z,1007.51
2017-06-12T11:24:21.778Z,1007.55
2017-06-12T11:25:31.407Z,1007.55
2017-06-12T11:26:41.351Z,1007.55
2017-06-12T11:27:51.613Z,1007.53
2017-06-12T11:29:01.891Z,1007.51
2017-06-12T11:30:12.192Z,1007.63
2017-06-12T11:31:22.456Z,1007.54
2017-06-12T11:32:31.782Z,1007.46
2017-06-12T11:33:41.415Z,1007.46
2017-06-12T11:34:51.690Z,1007.52
2017-06-12T11:36:01.475Z,1007.48
2017-06-12T11:37:11.424Z,1007.51
2017-06-12T11:38:21.370Z,1007.58
2017-06-12T11:39:31.636Z,1007.57
2017-06-12T11:40:41.292Z,1007.53
2017-06-12T11:41:51.243Z,1007.62
2017-06-12T11:43:01.537Z,1007.61
2017-06-12T11:44:11.806Z,1007.54
2017-06-12T11:45:22.077Z,1007.51
2017-06-12T11:46:32.033Z,1007.59
2017-06-12T11:47:41.980Z,1007.54
2017-06-12T11:48:51.621Z,1007.63
2017-06-12T11:50:01.887Z,1007.59
2017-06-12T11:51:11.207Z,1007.61
2017-06-12T11:52:21.157Z,1007.54
2017-06-12T11:53:31.571Z,1007.61
2017-06-12T11:54:41.841Z,1007.57
2017-06-12T11:55:52.108Z,1007.6
2017-06-12T11:57:01.747Z,1007.58
2017-06-12T11:58:11.698Z,1007.55
2017-06-12T11:59:21.334Z,1007.6
2017-06-12T12:00:30.335Z,1007.63
2017-06-12T12:01:40.622Z,1007.74
2017-06-12T12:02:50.264Z,1007.84
2017-06-12T12:04:00.529Z,1007.8
2017-06-12T12:05:10.798Z,1007.76
2017-06-12T12:06:20.429Z,1007.77
2017-06-12T12:07:30.381Z,1007.74
2017-06-12T12:08:40.329Z,1007.72
2017-06-12T12:09:49.962Z,1007.76
2017-06-12T12:11:00.060Z,1007.87
2017-06-12T12:12:10.326Z,1007.81
2017-06-12T12:13:20.592Z,1007.76
2017-06-12T12:14:30.857Z,1007.76
2017-06-12T12:15:40.806Z,1007.9
2017-06-12T12:16:50.441Z,1007.91
2017-06-12T12:18:00.706Z,1007.76
2017-06-12T12:19:10.650Z,1007.85
2017-06-12T12:20:20.600Z,1007.88
2017-06-12T12:21:30.577Z,1007.93
2017-06-12T12:22:40.215Z,1007.98
2017-06-12T12:23:50.180Z,1007.86
2017-06-12T12:25:00.472Z,1007.97
2017-06-12T12:26:10.424Z,1007.96
2017-06-12T12:27:20.373Z,1007.98
2017-06-12T12:28:30.792Z,1008.01
2017-06-12T12:29:41.072Z,1008.08
2017-06-12T12:30:50.402Z,1007.97
2017-06-12T12:32:00.347Z,1007.97
2017-06-12T12:33:10.614Z,1007.98
2017-06-12T12:34:20.559Z,1007.99
2017-06-12T12:35:30.197Z,1007.95
2017-06-12T12:36:40.141Z,1007.87
2017-06-12T12:37:50.085Z,1008.1
2017-06-12T12:39:00.360Z,1007.97
2017-06-12T12:40:09.998Z,1007.94
2017-06-12T12:41:20.259Z,1007.95
2017-06-12T12:42:30.524Z,1007.95
2017-06-12T12:43:40.794Z,1008
2017-06-12T12:44:51.064Z,1008
2017-06-12T12:46:01.199Z,1007.99
2017-06-12T12:47:11.145Z,1008.05
2017-06-12T12:48:21.099Z,1007.99
2017-06-12T12:49:30.735Z,1007.92
2017-06-12T12:50:41.047Z,1007.9
2017-06-12T12:51:50.992Z,1008.01
2017-06-12T12:53:01.257Z,1007.97
2017-06-12T12:54:11.210Z,1007.97
2017-06-12T12:55:21.474Z,1007.97
2017-06-12T12:56:31.105Z,1007.97
2017-06-12T12:57:41.207Z,1007.98
2017-06-12T12:58:50.839Z,1008.08
2017-06-12T13:00:00.786Z,1007.93
2017-06-12T13:01:11.054Z,1008.13
2017-06-12T13:02:21.315Z,1008.09
2017-06-12T13:03:31.269Z,1008.32
2017-06-12T13:04:41.222Z,1008.08
2017-06-12T13:05:51.168Z,1008.08
2017-06-12T13:07:01.121Z,1008.09
2017-06-12T13:08:10.756Z,1008.11
2017-06-12T13:09:20.592Z,1008.47
2017-06-12T13:10:30.879Z,1008.03
2017-06-12T13:11:41.137Z,1008.1
2017-06-12T13:12:50.463Z,1008.33
2017-06-12T13:14:00.726Z,1008.25
2017-06-12T13:15:10.366Z,1008.18
2017-06-12T13:16:20.312Z,1008.15
2017-06-12T13:17:29.951Z,1008.15
2017-06-12T13:18:39.900Z,1008.05
2017-06-12T13:19:49.885Z,1008.26
2017-06-12T13:20:59.836Z,1008.3
2017-06-12T13:22:09.791Z,1008.21
2017-06-12T13:23:20.054Z,1008.17
2017-06-12T13:24:30.321Z,1008.36
2017-06-12T13:25:40.583Z,1008.4
2017-06-12T13:26:50.365Z,1008.44
2017-06-12T13:28:00.006Z,1008.36
2017-06-12T13:29:09.958Z,1008.48
2017-06-12T13:30:20.223Z,1008.36
2017-06-12T13:31:30.501Z,1008.36
2017-06-12T13:32:40.137Z,1008.4
2017-06-12T13:33:50.432Z,1008.34
2017-06-12T13:35:00.073Z,1008.43
2017-06-12T13:36:09.707Z,1008.35
2017-06-12T13:37:19.974Z,1008.37
2017-06-12T13:38:30.072Z,1008.19
2017-06-12T13:39:40.336Z,1008.28
2017-06-12T13:40:50.598Z,1008.37
2017-06-12T13:42:00.540Z,1008.2
2017-06-12T13:43:10.175Z,1008.33
2017-06-12T13:44:20.594Z,1008.31
2017-06-12T13:45:30.573Z,1008.25
2017-06-12T13:46:40.832Z,1008.27
2017-06-12T13:47:50.776Z,1008.35
2017-06-12T13:49:01.037Z,1008.32
2017-06-12T13:50:10.984Z,1008.25
2017-06-12T13:51:21.247Z,1008.33
2017-06-12T13:52:31.202Z,1008.27
2017-06-12T13:53:41.460Z,1008.21
2017-06-12T13:54:51.087Z,1008.18
2017-06-12T13:56:01.037Z,1008.46
2017-06-12T13:57:11.295Z,1008.38
2017-06-12T13:58:21.560Z,1008.32
2017-06-12T13:59:31.512Z,1008.36
2017-06-12T14:00:40.832Z,1008.35
2017-06-12T14:01:51.248Z,1008.29
2017-06-12T14:03:01.195Z,1008.4
2017-06-12T14:04:11.460Z,1008.48
2017-06-12T14:05:21.413Z,1008.44
2017-06-12T14:06:31.676Z,1008.45
2017-06-12T14:07:41.940Z,1008.53
2017-06-12T14:08:52.201Z,1008.52
2017-06-12T14:10:01.520Z,1008.47